sensor_id;sensor_type;location;lat;lon;timestamp;temperature;humidity
37322;DHT22;23697;48.684;9.032;2023-09-30T00:00:09;14.70;84.40
37322;DHT22;23697;48.684;9.032;2023-09-30T00:02:36;14.70;84.50
37322;DHT22;23697;48.684;9.032;2023-09-30T00:05:04;14.70;84.60
37322;DHT22;23697;48.684;9.032;2023-09-30T00:07:31;14.70;84.50
37322;DHT22;23697;48.684;9.032;2023-09-30T00:09:58;14.70;84.60
37322;DHT22;23697;48.684;9.032;2023-09-30T00:12:26;14.70;84.60
37322;DHT22;23697;48.684;9.032;2023-09-30T00:14:54;14.60;84.70
37322;DHT22;23697;48.684;9.032;2023-09-30T00:17:21;14.70;84.70
37322;DHT22;23697;48.684;9.032;2023-09-30T00:19:48;14.70;84.70
37322;DHT22;23697;48.684;9.032;2023-09-30T00:22:15;14.60;84.60
37322;DHT22;23697;48.684;9.032;2023-09-30T00:24:42;14.60;84.50
37322;DHT22;23697;48.684;9.032;2023-09-30T00:27:09;14.60;84.50
37322;DHT22;23697;48.684;9.032;2023-09-30T00:29:37;14.60;84.50
37322;DHT22;23697;48.684;9.032;2023-09-30T00:32:04;14.60;84.60
37322;DHT22;23697;48.684;9.032;2023-09-30T00:34:33;14.60;84.70
37322;DHT22;23697;48.684;9.032;2023-09-30T00:37:00;14.60;84.80
37322;DHT22;23697;48.684;9.032;2023-09-30T00:39:27;14.60;85.00
37322;DHT22;23697;48.684;9.032;2023-09-30T00:41:56;14.60;85.00
37322;DHT22;23697;48.684;9.032;2023-09-30T00:44:25;14.60;84.90
37322;DHT22;23697;48.684;9.032;2023-09-30T00:46:54;14.60;85.00
37322;DHT22;23697;48.684;9.032;2023-09-30T00:49:22;14.50;85.20
37322;DHT22;23697;48.684;9.032;2023-09-30T00:51:49;14.50;85.20
37322;DHT22;23697;48.684;9.032;2023-09-30T00:54:17;14.60;85.10
37322;DHT22;23697;48.684;9.032;2023-09-30T00:56:46;14.60;85.10
37322;DHT22;23697;48.684;9.032;2023-09-30T00:59:23;14.60;85.00
37322;DHT22;23697;48.684;9.032;2023-09-30T01:01:56;14.60;85.00
37322;DHT22;23697;48.684;9.032;2023-09-30T01:04:25;14.60;85.00
37322;DHT22;23697;48.684;9.032;2023-09-30T01:06:53;14.50;85.00
37322;DHT22;23697;48.684;9.032;2023-09-30T01:09:23;14.50;85.00
37322;DHT22;23697;48.684;9.032;2023-09-30T01:11:50;14.50;85.20
37322;DHT22;23697;48.684;9.032;2023-09-30T01:14:27;14.50;85.30
37322;DHT22;23697;48.684;9.032;2023-09-30T01:16:56;14.50;85.30
37322;DHT22;23697;48.684;9.032;2023-09-30T01:19:23;14.50;85.30
37322;DHT22;23697;48.684;9.032;2023-09-30T01:21:52;14.50;85.30
37322;DHT22;23697;48.684;9.032;2023-09-30T01:24:22;14.50;85.40
37322;DHT22;23697;48.684;9.032;2023-09-30T01:26:51;14.50;85.40
37322;DHT22;23697;48.684;9.032;2023-09-30T01:29:18;14.40;85.30
37322;DHT22;23697;48.684;9.032;2023-09-30T01:31:45;14.40;85.30
37322;DHT22;23697;48.684;9.032;2023-09-30T01:34:13;14.30;85.30
37322;DHT22;23697;48.684;9.032;2023-09-30T01:36:40;14.30;85.20
37322;DHT22;23697;48.684;9.032;2023-09-30T01:39:09;14.20;85.30
37322;DHT22;23697;48.684;9.032;2023-09-30T01:41:38;14.20;85.50
37322;DHT22;23697;48.684;9.032;2023-09-30T01:44:05;14.10;85.40
37322;DHT22;23697;48.684;9.032;2023-09-30T01:46:32;14.10;85.50
37322;DHT22;23697;48.684;9.032;2023-09-30T01:48:59;14.10;85.50
37322;DHT22;23697;48.684;9.032;2023-09-30T01:51:26;14.00;85.50
37322;DHT22;23697;48.684;9.032;2023-09-30T01:53:53;14.00;85.50
37322;DHT22;23697;48.684;9.032;2023-09-30T01:56:21;13.90;85.60
37322;DHT22;23697;48.684;9.032;2023-09-30T01:58:48;13.80;85.60
37322;DHT22;23697;48.684;9.032;2023-09-30T02:01:15;13.80;85.80
37322;DHT22;23697;48.684;9.032;2023-09-30T02:03:42;13.70;85.80
37322;DHT22;23697;48.684;9.032;2023-09-30T02:06:09;13.70;86.00
37322;DHT22;23697;48.684;9.032;2023-09-30T02:08:36;13.70;86.00
37322;DHT22;23697;48.684;9.032;2023-09-30T02:11:03;13.60;86.20
37322;DHT22;23697;48.684;9.032;2023-09-30T02:13:32;13.70;86.20
37322;DHT22;23697;48.684;9.032;2023-09-30T02:16:00;13.70;86.30
37322;DHT22;23697;48.684;9.032;2023-09-30T02:18:27;13.60;86.40
37322;DHT22;23697;48.684;9.032;2023-09-30T02:20:54;13.60;86.40
37322;DHT22;23697;48.684;9.032;2023-09-30T02:23:20;13.60;86.40
37322;DHT22;23697;48.684;9.032;2023-09-30T02:25:48;13.70;86.50
37322;DHT22;23697;48.684;9.032;2023-09-30T02:28:15;13.70;86.50
37322;DHT22;23697;48.684;9.032;2023-09-30T02:30:43;13.80;86.40
37322;DHT22;23697;48.684;9.032;2023-09-30T02:33:10;13.70;86.40
37322;DHT22;23697;48.684;9.032;2023-09-30T02:35:36;13.70;86.50
37322;DHT22;23697;48.684;9.032;2023-09-30T02:38:04;13.80;86.60
37322;DHT22;23697;48.684;9.032;2023-09-30T02:40:32;13.80;86.60
37322;DHT22;23697;48.684;9.032;2023-09-30T02:42:59;13.70;86.60
37322;DHT22;23697;48.684;9.032;2023-09-30T02:45:26;13.70;86.70
37322;DHT22;23697;48.684;9.032;2023-09-30T02:47:54;13.70;86.60
37322;DHT22;23697;48.684;9.032;2023-09-30T02:50:21;13.70;86.60
37322;DHT22;23697;48.684;9.032;2023-09-30T02:52:47;13.70;86.70
37322;DHT22;23697;48.684;9.032;2023-09-30T02:55:17;13.80;86.70
37322;DHT22;23697;48.684;9.032;2023-09-30T02:57:44;13.70;86.70
37322;DHT22;23697;48.684;9.032;2023-09-30T03:00:12;13.80;86.70
37322;DHT22;23697;48.684;9.032;2023-09-30T03:02:49;13.80;86.70
37322;DHT22;23697;48.684;9.032;2023-09-30T03:05:17;13.70;86.60
37322;DHT22;23697;48.684;9.032;2023-09-30T03:07:45;13.70;86.70
37322;DHT22;23697;48.684;9.032;2023-09-30T03:10:12;13.70;86.80
37322;DHT22;23697;48.684;9.032;2023-09-30T03:12:46;13.80;86.90
37322;DHT22;23697;48.684;9.032;2023-09-30T03:15:13;13.70;86.90
37322;DHT22;23697;48.684;9.032;2023-09-30T03:17:40;13.70;87.00
37322;DHT22;23697;48.684;9.032;2023-09-30T03:20:09;13.80;87.10
37322;DHT22;23697;48.684;9.032;2023-09-30T03:22:39;13.80;87.10
37322;DHT22;23697;48.684;9.032;2023-09-30T03:25:10;13.80;87.10
37322;DHT22;23697;48.684;9.032;2023-09-30T03:27:37;13.90;87.10
37322;DHT22;23697;48.684;9.032;2023-09-30T03:30:05;13.90;87.20
37322;DHT22;23697;48.684;9.032;2023-09-30T03:32:32;13.90;87.10
37322;DHT22;23697;48.684;9.032;2023-09-30T03:34:59;13.90;87.10
37322;DHT22;23697;48.684;9.032;2023-09-30T03:37:26;13.90;87.10
37322;DHT22;23697;48.684;9.032;2023-09-30T03:39:54;13.90;87.20
37322;DHT22;23697;48.684;9.032;2023-09-30T03:42:22;13.90;87.20
37322;DHT22;23697;48.684;9.032;2023-09-30T03:44:48;13.90;87.20
37322;DHT22;23697;48.684;9.032;2023-09-30T03:47:18;14.00;87.30
37322;DHT22;23697;48.684;9.032;2023-09-30T03:49:45;14.00;87.30
37322;DHT22;23697;48.684;9.032;2023-09-30T03:52:13;13.90;87.20
37322;DHT22;23697;48.684;9.032;2023-09-30T03:54:40;14.00;87.30
37322;DHT22;23697;48.684;9.032;2023-09-30T03:57:09;13.90;87.30
37322;DHT22;23697;48.684;9.032;2023-09-30T03:59:38;13.90;87.30
37322;DHT22;23697;48.684;9.032;2023-09-30T04:02:12;14.00;87.30
37322;DHT22;23697;48.684;9.032;2023-09-30T04:04:40;13.90;87.30
37322;DHT22;23697;48.684;9.032;2023-09-30T04:07:07;13.90;87.40
37322;DHT22;23697;48.684;9.032;2023-09-30T04:09:35;13.90;87.30
37322;DHT22;23697;48.684;9.032;2023-09-30T04:12:02;13.90;87.40
37322;DHT22;23697;48.684;9.032;2023-09-30T04:14:31;13.90;87.50
37322;DHT22;23697;48.684;9.032;2023-09-30T04:16:58;13.90;87.40
37322;DHT22;23697;48.684;9.032;2023-09-30T04:19:25;13.90;87.40
37322;DHT22;23697;48.684;9.032;2023-09-30T04:21:56;14.00;87.40
37322;DHT22;23697;48.684;9.032;2023-09-30T04:24:23;14.00;87.50
37322;DHT22;23697;48.684;9.032;2023-09-30T04:26:50;14.00;87.50
37322;DHT22;23697;48.684;9.032;2023-09-30T04:29:20;14.00;87.50
37322;DHT22;23697;48.684;9.032;2023-09-30T04:31:50;13.90;87.40
37322;DHT22;23697;48.684;9.032;2023-09-30T04:34:18;14.00;87.50
37322;DHT22;23697;48.684;9.032;2023-09-30T04:36:47;13.90;87.40
37322;DHT22;23697;48.684;9.032;2023-09-30T04:39:15;13.90;87.50
37322;DHT22;23697;48.684;9.032;2023-09-30T04:41:41;13.90;87.50
37322;DHT22;23697;48.684;9.032;2023-09-30T04:44:09;14.00;87.60
37322;DHT22;23697;48.684;9.032;2023-09-30T04:46:37;13.90;87.60
37322;DHT22;23697;48.684;9.032;2023-09-30T04:49:07;14.00;87.60
37322;DHT22;23697;48.684;9.032;2023-09-30T04:51:34;13.90;87.70
37322;DHT22;23697;48.684;9.032;2023-09-30T04:54:01;13.90;87.70
37322;DHT22;23697;48.684;9.032;2023-09-30T04:56:29;13.90;87.70
37322;DHT22;23697;48.684;9.032;2023-09-30T04:59:04;13.90;87.70
37322;DHT22;23697;48.684;9.032;2023-09-30T05:01:31;14.00;87.80
37322;DHT22;23697;48.684;9.032;2023-09-30T05:07:46;14.00;87.70
37322;DHT22;23697;48.684;9.032;2023-09-30T05:10:47;14.00;87.70
37322;DHT22;23697;48.684;9.032;2023-09-30T05:13:15;13.90;87.70
37322;DHT22;23697;48.684;9.032;2023-09-30T05:15:43;14.00;87.80
37322;DHT22;23697;48.684;9.032;2023-09-30T05:18:10;14.00;87.70
37322;DHT22;23697;48.684;9.032;2023-09-30T05:20:36;14.00;87.70
37322;DHT22;23697;48.684;9.032;2023-09-30T05:23:06;14.00;87.70
37322;DHT22;23697;48.684;9.032;2023-09-30T05:25:33;14.00;87.80
37322;DHT22;23697;48.684;9.032;2023-09-30T05:28:00;13.90;87.70
37322;DHT22;23697;48.684;9.032;2023-09-30T05:30:27;13.80;87.80
37322;DHT22;23697;48.684;9.032;2023-09-30T05:32:54;13.80;87.80
37322;DHT22;23697;48.684;9.032;2023-09-30T05:35:21;13.80;87.80
37322;DHT22;23697;48.684;9.032;2023-09-30T05:37:48;13.80;87.80
37322;DHT22;23697;48.684;9.032;2023-09-30T05:40:19;13.80;87.80
37322;DHT22;23697;48.684;9.032;2023-09-30T05:42:51;13.70;87.80
37322;DHT22;23697;48.684;9.032;2023-09-30T05:45:18;13.70;87.80
37322;DHT22;23697;48.684;9.032;2023-09-30T05:47:45;13.60;87.80
37322;DHT22;23697;48.684;9.032;2023-09-30T05:50:12;13.60;87.90
37322;DHT22;23697;48.684;9.032;2023-09-30T05:52:41;13.60;87.90
37322;DHT22;23697;48.684;9.032;2023-09-30T05:55:09;13.70;88.00
37322;DHT22;23697;48.684;9.032;2023-09-30T05:57:37;13.80;88.10
37322;DHT22;23697;48.684;9.032;2023-09-30T06:00:05;13.80;88.00
37322;DHT22;23697;48.684;9.032;2023-09-30T06:02:46;14.00;88.00
37322;DHT22;23697;48.684;9.032;2023-09-30T06:05:14;14.00;88.00
37322;DHT22;23697;48.684;9.032;2023-09-30T06:07:44;14.10;88.00
37322;DHT22;23697;48.684;9.032;2023-09-30T06:10:11;14.10;88.00
37322;DHT22;23697;48.684;9.032;2023-09-30T06:12:39;14.10;87.90
37322;DHT22;23697;48.684;9.032;2023-09-30T06:15:08;14.10;87.90
37322;DHT22;23697;48.684;9.032;2023-09-30T06:17:36;14.10;87.90
37322;DHT22;23697;48.684;9.032;2023-09-30T06:20:04;14.20;87.90
37322;DHT22;23697;48.684;9.032;2023-09-30T06:22:35;14.20;87.80
37322;DHT22;23697;48.684;9.032;2023-09-30T06:25:03;14.20;87.90
37322;DHT22;23697;48.684;9.032;2023-09-30T06:27:32;14.20;87.90
37322;DHT22;23697;48.684;9.032;2023-09-30T06:30:31;14.30;87.90
37322;DHT22;23697;48.684;9.032;2023-09-30T06:33:01;14.30;87.90
37322;DHT22;23697;48.684;9.032;2023-09-30T06:35:31;14.40;87.80
37322;DHT22;23697;48.684;9.032;2023-09-30T06:38:15;14.50;87.60
37322;DHT22;23697;48.684;9.032;2023-09-30T06:40:51;14.60;87.60
37322;DHT22;23697;48.684;9.032;2023-09-30T06:43:19;14.60;87.30
37322;DHT22;23697;48.684;9.032;2023-09-30T06:45:50;14.60;87.20
37322;DHT22;23697;48.684;9.032;2023-09-30T06:48:17;14.60;87.10
37322;DHT22;23697;48.684;9.032;2023-09-30T06:50:44;14.70;87.10
37322;DHT22;23697;48.684;9.032;2023-09-30T06:53:13;14.70;86.70
37322;DHT22;23697;48.684;9.032;2023-09-30T06:55:44;14.80;86.70
37322;DHT22;23697;48.684;9.032;2023-09-30T06:58:11;14.90;86.40
37322;DHT22;23697;48.684;9.032;2023-09-30T07:00:41;14.90;86.10
37322;DHT22;23697;48.684;9.032;2023-09-30T07:03:13;15.00;85.60
37322;DHT22;23697;48.684;9.032;2023-09-30T07:05:55;14.90;85.40
37322;DHT22;23697;48.684;9.032;2023-09-30T07:08:26;14.90;85.60
37322;DHT22;23697;48.684;9.032;2023-09-30T07:10:54;15.10;85.40
37322;DHT22;23697;48.684;9.032;2023-09-30T07:13:22;15.10;85.20
37322;DHT22;23697;48.684;9.032;2023-09-30T07:15:49;15.10;85.10
37322;DHT22;23697;48.684;9.032;2023-09-30T07:18:17;15.10;85.10
37322;DHT22;23697;48.684;9.032;2023-09-30T07:20:46;15.10;85.00
37322;DHT22;23697;48.684;9.032;2023-09-30T07:23:14;15.10;84.80
37322;DHT22;23697;48.684;9.032;2023-09-30T07:25:41;15.20;84.70
37322;DHT22;23697;48.684;9.032;2023-09-30T07:28:09;15.30;84.60
37322;DHT22;23697;48.684;9.032;2023-09-30T07:30:38;15.40;84.40
37322;DHT22;23697;48.684;9.032;2023-09-30T07:33:08;15.60;83.90
37322;DHT22;23697;48.684;9.032;2023-09-30T07:35:37;15.70;83.70
37322;DHT22;23697;48.684;9.032;2023-09-30T07:38:05;16.00;83.20
37322;DHT22;23697;48.684;9.032;2023-09-30T07:40:31;16.10;82.50
37322;DHT22;23697;48.684;9.032;2023-09-30T07:42:59;16.40;83.00
37322;DHT22;23697;48.684;9.032;2023-09-30T07:45:25;16.60;82.40
37322;DHT22;23697;48.684;9.032;2023-09-30T07:47:53;16.60;82.00
37322;DHT22;23697;48.684;9.032;2023-09-30T07:50:20;16.80;81.50
37322;DHT22;23697;48.684;9.032;2023-09-30T07:52:48;16.90;80.90
37322;DHT22;23697;48.684;9.032;2023-09-30T07:55:15;16.90;80.80
37322;DHT22;23697;48.684;9.032;2023-09-30T07:57:43;17.00;80.10
37322;DHT22;23697;48.684;9.032;2023-09-30T08:00:12;17.00;79.20
37322;DHT22;23697;48.684;9.032;2023-09-30T08:02:42;16.90;78.30
37322;DHT22;23697;48.684;9.032;2023-09-30T08:05:10;16.90;78.30
37322;DHT22;23697;48.684;9.032;2023-09-30T08:07:48;17.00;78.60
37322;DHT22;23697;48.684;9.032;2023-09-30T08:13:21;17.00;77.40
37322;DHT22;23697;48.684;9.032;2023-09-30T08:15:49;17.10;77.80
37322;DHT22;23697;48.684;9.032;2023-09-30T08:18:30;17.20;77.50
37322;DHT22;23697;48.684;9.032;2023-09-30T08:20:58;17.20;77.00
37322;DHT22;23697;48.684;9.032;2023-09-30T08:23:43;17.30;77.10
37322;DHT22;23697;48.684;9.032;2023-09-30T08:26:10;17.20;76.80
37322;DHT22;23697;48.684;9.032;2023-09-30T08:28:51;17.20;76.20
37322;DHT22;23697;48.684;9.032;2023-09-30T08:31:18;17.10;76.80
37322;DHT22;23697;48.684;9.032;2023-09-30T08:33:49;17.10;77.40
37322;DHT22;23697;48.684;9.032;2023-09-30T08:36:19;17.10;77.30
37322;DHT22;23697;48.684;9.032;2023-09-30T08:38:48;17.20;77.70
37322;DHT22;23697;48.684;9.032;2023-09-30T08:41:25;17.20;77.40
37322;DHT22;23697;48.684;9.032;2023-09-30T08:43:55;17.20;77.30
37322;DHT22;23697;48.684;9.032;2023-09-30T08:46:24;17.30;77.60
37322;DHT22;23697;48.684;9.032;2023-09-30T08:48:52;17.40;77.40
37322;DHT22;23697;48.684;9.032;2023-09-30T08:51:20;17.40;76.30
37322;DHT22;23697;48.684;9.032;2023-09-30T08:53:49;17.30;75.80
37322;DHT22;23697;48.684;9.032;2023-09-30T08:56:17;17.30;75.90
37322;DHT22;23697;48.684;9.032;2023-09-30T08:58:46;17.40;76.00
37322;DHT22;23697;48.684;9.032;2023-09-30T09:01:13;17.80;76.30
37322;DHT22;23697;48.684;9.032;2023-09-30T09:03:40;18.10;75.10
37322;DHT22;23697;48.684;9.032;2023-09-30T09:06:07;18.60;74.50
37322;DHT22;23697;48.684;9.032;2023-09-30T09:08:34;18.80;72.80
37322;DHT22;23697;48.684;9.032;2023-09-30T09:11:02;19.00;71.50
37322;DHT22;23697;48.684;9.032;2023-09-30T09:13:46;19.10;69.30
37322;DHT22;23697;48.684;9.032;2023-09-30T09:16:15;18.90;71.40
37322;DHT22;23697;48.684;9.032;2023-09-30T09:18:42;18.80;71.20
37322;DHT22;23697;48.684;9.032;2023-09-30T09:21:10;18.60;71.40
37322;DHT22;23697;48.684;9.032;2023-09-30T09:23:41;18.40;71.20
37322;DHT22;23697;48.684;9.032;2023-09-30T09:26:10;18.30;71.80
37322;DHT22;23697;48.684;9.032;2023-09-30T09:28:37;18.20;71.80
37322;DHT22;23697;48.684;9.032;2023-09-30T09:34:02;18.60;73.00
37322;DHT22;23697;48.684;9.032;2023-09-30T09:36:39;18.70;70.70
37322;DHT22;23697;48.684;9.032;2023-09-30T09:39:12;19.10;71.40
37322;DHT22;23697;48.684;9.032;2023-09-30T09:44:57;19.90;69.30
37322;DHT22;23697;48.684;9.032;2023-09-30T09:47:26;20.10;67.80
37322;DHT22;23697;48.684;9.032;2023-09-30T09:49:57;20.40;67.60
37322;DHT22;23697;48.684;9.032;2023-09-30T09:52:24;20.10;66.20
37322;DHT22;23697;48.684;9.032;2023-09-30T09:54:52;19.90;67.70
37322;DHT22;23697;48.684;9.032;2023-09-30T09:57:19;20.20;66.60
37322;DHT22;23697;48.684;9.032;2023-09-30T09:59:47;20.40;66.80
37322;DHT22;23697;48.684;9.032;2023-09-30T10:02:23;20.60;64.50
37322;DHT22;23697;48.684;9.032;2023-09-30T10:04:50;21.00;63.90
37322;DHT22;23697;48.684;9.032;2023-09-30T10:07:22;21.10;61.70
37322;DHT22;23697;48.684;9.032;2023-09-30T10:16:49;21.20;59.50
37322;DHT22;23697;48.684;9.032;2023-09-30T10:29:55;21.70;59.20
37322;DHT22;23697;48.684;9.032;2023-09-30T10:33:18;21.90;58.70
37322;DHT22;23697;48.684;9.032;2023-09-30T10:40:36;22.40;57.10
37322;DHT22;23697;48.684;9.032;2023-09-30T12:23:46;20.80;55.30
37322;DHT22;23697;48.684;9.032;2023-09-30T12:26:15;20.60;56.30
37322;DHT22;23697;48.684;9.032;2023-09-30T12:28:45;20.60;56.90
37322;DHT22;23697;48.684;9.032;2023-09-30T12:31:28;20.40;56.70
37322;DHT22;23697;48.684;9.032;2023-09-30T12:34:12;20.20;54.50
37322;DHT22;23697;48.684;9.032;2023-09-30T12:36:40;20.20;56.10
37322;DHT22;23697;48.684;9.032;2023-09-30T12:39:08;20.40;56.00
37322;DHT22;23697;48.684;9.032;2023-09-30T12:41:37;20.60;55.30
37322;DHT22;23697;48.684;9.032;2023-09-30T12:44:04;20.80;55.50
37322;DHT22;23697;48.684;9.032;2023-09-30T12:46:31;21.10;53.90
37322;DHT22;23697;48.684;9.032;2023-09-30T12:49:00;21.30;52.80
37322;DHT22;23697;48.684;9.032;2023-09-30T12:51:27;21.20;53.50
37322;DHT22;23697;48.684;9.032;2023-09-30T12:53:54;21.00;55.10
37322;DHT22;23697;48.684;9.032;2023-09-30T12:56:23;20.70;54.60
37322;DHT22;23697;48.684;9.032;2023-09-30T12:58:50;20.50;56.20
37322;DHT22;23697;48.684;9.032;2023-09-30T13:01:17;20.50;56.50
37322;DHT22;23697;48.684;9.032;2023-09-30T13:03:44;20.30;57.60
37322;DHT22;23697;48.684;9.032;2023-09-30T13:06:11;20.20;57.20
37322;DHT22;23697;48.684;9.032;2023-09-30T13:08:38;20.10;57.20
37322;DHT22;23697;48.684;9.032;2023-09-30T13:11:05;20.20;58.20
37322;DHT22;23697;48.684;9.032;2023-09-30T13:13:34;20.10;57.20
37322;DHT22;23697;48.684;9.032;2023-09-30T13:16:01;20.10;57.50
37322;DHT22;23697;48.684;9.032;2023-09-30T13:18:28;20.10;55.10
37322;DHT22;23697;48.684;9.032;2023-09-30T13:20:54;20.00;55.40
37322;DHT22;23697;48.684;9.032;2023-09-30T13:23:22;20.10;55.30
37322;DHT22;23697;48.684;9.032;2023-09-30T13:25:49;20.20;55.00
37322;DHT22;23697;48.684;9.032;2023-09-30T13:28:16;20.50;52.90
37322;DHT22;23697;48.684;9.032;2023-09-30T13:30:44;20.80;53.10
37322;DHT22;23697;48.684;9.032;2023-09-30T13:33:13;21.20;53.30
37322;DHT22;23697;48.684;9.032;2023-09-30T13:35:40;21.50;53.00
37322;DHT22;23697;48.684;9.032;2023-09-30T13:38:07;21.80;52.00
37322;DHT22;23697;48.684;9.032;2023-09-30T13:55:58;22.00;52.40
37322;DHT22;23697;48.684;9.032;2023-09-30T13:58:25;22.00;52.90
37322;DHT22;23697;48.684;9.032;2023-09-30T14:00:52;21.70;52.00
37322;DHT22;23697;48.684;9.032;2023-09-30T14:03:19;21.40;52.80
37322;DHT22;23697;48.684;9.032;2023-09-30T14:05:46;21.10;53.20
37322;DHT22;23697;48.684;9.032;2023-09-30T14:08:13;20.90;54.00
37322;DHT22;23697;48.684;9.032;2023-09-30T14:10:40;20.60;55.40
37322;DHT22;23697;48.684;9.032;2023-09-30T14:13:08;20.50;55.60
37322;DHT22;23697;48.684;9.032;2023-09-30T14:15:35;20.40;55.80
37322;DHT22;23697;48.684;9.032;2023-09-30T14:18:02;20.30;56.20
37322;DHT22;23697;48.684;9.032;2023-09-30T14:20:29;20.40;56.30
37322;DHT22;23697;48.684;9.032;2023-09-30T14:22:56;20.40;55.30
37322;DHT22;23697;48.684;9.032;2023-09-30T14:25:23;20.30;55.20
37322;DHT22;23697;48.684;9.032;2023-09-30T14:27:50;20.40;55.60
37322;DHT22;23697;48.684;9.032;2023-09-30T14:30:18;20.60;54.70
37322;DHT22;23697;48.684;9.032;2023-09-30T14:32:46;20.70;54.40
37322;DHT22;23697;48.684;9.032;2023-09-30T14:35:13;20.90;53.00
37322;DHT22;23697;48.684;9.032;2023-09-30T14:37:41;20.90;52.70
37322;DHT22;23697;48.684;9.032;2023-09-30T14:40:09;21.10;53.60
37322;DHT22;23697;48.684;9.032;2023-09-30T14:42:36;20.90;52.80
37322;DHT22;23697;48.684;9.032;2023-09-30T14:45:03;21.00;53.80
37322;DHT22;23697;48.684;9.032;2023-09-30T14:47:31;21.00;53.30
37322;DHT22;23697;48.684;9.032;2023-09-30T14:49:59;20.80;55.00
37322;DHT22;23697;48.684;9.032;2023-09-30T14:52:27;20.70;54.30
37322;DHT22;23697;48.684;9.032;2023-09-30T14:54:54;20.80;55.10
37322;DHT22;23697;48.684;9.032;2023-09-30T14:57:20;20.90;54.00
37322;DHT22;23697;48.684;9.032;2023-09-30T14:59:48;20.90;56.20
37322;DHT22;23697;48.684;9.032;2023-09-30T15:02:14;20.90;56.00
37322;DHT22;23697;48.684;9.032;2023-09-30T15:04:43;20.80;55.90
37322;DHT22;23697;48.684;9.032;2023-09-30T15:07:10;20.80;56.70
37322;DHT22;23697;48.684;9.032;2023-09-30T15:09:37;20.70;56.10
37322;DHT22;23697;48.684;9.032;2023-09-30T15:12:04;20.60;55.90
37322;DHT22;23697;48.684;9.032;2023-09-30T15:14:31;20.40;57.00
37322;DHT22;23697;48.684;9.032;2023-09-30T15:16:58;20.30;58.20
37322;DHT22;23697;48.684;9.032;2023-09-30T15:19:25;20.20;57.40
37322;DHT22;23697;48.684;9.032;2023-09-30T15:21:53;20.00;57.60
37322;DHT22;23697;48.684;9.032;2023-09-30T15:24:20;20.00;58.90
37322;DHT22;23697;48.684;9.032;2023-09-30T15:26:46;19.90;58.20
37322;DHT22;23697;48.684;9.032;2023-09-30T15:29:13;19.80;59.10
37322;DHT22;23697;48.684;9.032;2023-09-30T15:31:41;19.80;58.80
37322;DHT22;23697;48.684;9.032;2023-09-30T15:34:08;19.90;58.70
37322;DHT22;23697;48.684;9.032;2023-09-30T15:36:36;19.90;59.60
37322;DHT22;23697;48.684;9.032;2023-09-30T15:39:05;19.90;58.20
37322;DHT22;23697;48.684;9.032;2023-09-30T15:41:33;19.80;58.10
37322;DHT22;23697;48.684;9.032;2023-09-30T15:44:00;19.70;58.80
37322;DHT22;23697;48.684;9.032;2023-09-30T15:46:27;19.60;58.90
37322;DHT22;23697;48.684;9.032;2023-09-30T15:48:54;19.60;59.00
37322;DHT22;23697;48.684;9.032;2023-09-30T15:51:20;19.60;59.70
37322;DHT22;23697;48.684;9.032;2023-09-30T15:53:47;19.60;58.70
37322;DHT22;23697;48.684;9.032;2023-09-30T15:56:15;19.50;59.50
37322;DHT22;23697;48.684;9.032;2023-09-30T15:58:42;19.60;59.40
37322;DHT22;23697;48.684;9.032;2023-09-30T16:01:11;19.50;58.70
37322;DHT22;23697;48.684;9.032;2023-09-30T16:03:38;19.50;58.70
37322;DHT22;23697;48.684;9.032;2023-09-30T16:06:07;19.40;58.70
37322;DHT22;23697;48.684;9.032;2023-09-30T16:08:35;19.40;59.00
37322;DHT22;23697;48.684;9.032;2023-09-30T16:11:01;19.30;59.00
37322;DHT22;23697;48.684;9.032;2023-09-30T16:13:30;19.20;59.60
37322;DHT22;23697;48.684;9.032;2023-09-30T16:15:56;19.10;60.10
37322;DHT22;23697;48.684;9.032;2023-09-30T16:18:23;19.10;60.60
37322;DHT22;23697;48.684;9.032;2023-09-30T16:20:50;19.10;60.90
37322;DHT22;23697;48.684;9.032;2023-09-30T16:23:17;19.10;61.10
37322;DHT22;23697;48.684;9.032;2023-09-30T16:25:44;18.90;61.40
37322;DHT22;23697;48.684;9.032;2023-09-30T16:28:10;18.90;62.00
37322;DHT22;23697;48.684;9.032;2023-09-30T16:30:39;18.80;61.70
37322;DHT22;23697;48.684;9.032;2023-09-30T16:33:05;18.70;62.40
37322;DHT22;23697;48.684;9.032;2023-09-30T16:35:32;18.60;63.20
37322;DHT22;23697;48.684;9.032;2023-09-30T16:38:00;18.60;62.90
37322;DHT22;23697;48.684;9.032;2023-09-30T16:40:29;18.60;63.10
37322;DHT22;23697;48.684;9.032;2023-09-30T16:46:48;18.40;63.40
37322;DHT22;23697;48.684;9.032;2023-09-30T16:49:34;18.30;63.50
37322;DHT22;23697;48.684;9.032;2023-09-30T16:52:10;18.10;63.90
37322;DHT22;23697;48.684;9.032;2023-09-30T16:54:37;18.10;64.90
37322;DHT22;23697;48.684;9.032;2023-09-30T16:57:06;17.90;65.80
37322;DHT22;23697;48.684;9.032;2023-09-30T16:59:33;17.80;66.10
37322;DHT22;23697;48.684;9.032;2023-09-30T17:02:01;17.80;66.10
37322;DHT22;23697;48.684;9.032;2023-09-30T17:04:28;17.70;66.40
37322;DHT22;23697;48.684;9.032;2023-09-30T17:06:55;17.60;67.00
37322;DHT22;23697;48.684;9.032;2023-09-30T17:09:21;17.60;67.50
37322;DHT22;23697;48.684;9.032;2023-09-30T17:11:48;17.40;68.30
37322;DHT22;23697;48.684;9.032;2023-09-30T17:14:15;17.30;67.50
37322;DHT22;23697;48.684;9.032;2023-09-30T17:16:43;17.30;67.70
37322;DHT22;23697;48.684;9.032;2023-09-30T17:19:12;17.20;67.90
37322;DHT22;23697;48.684;9.032;2023-09-30T17:21:39;17.10;67.80
37322;DHT22;23697;48.684;9.032;2023-09-30T17:24:06;17.10;67.90
37322;DHT22;23697;48.684;9.032;2023-09-30T17:26:33;17.00;68.10
37322;DHT22;23697;48.684;9.032;2023-09-30T17:28:59;17.00;69.00
37322;DHT22;23697;48.684;9.032;2023-09-30T17:31:26;16.90;69.50
37322;DHT22;23697;48.684;9.032;2023-09-30T17:33:53;16.80;70.00
37322;DHT22;23697;48.684;9.032;2023-09-30T17:36:21;16.70;70.10
37322;DHT22;23697;48.684;9.032;2023-09-30T17:38:48;16.60;70.30
37322;DHT22;23697;48.684;9.032;2023-09-30T17:41:15;16.50;70.90
37322;DHT22;23697;48.684;9.032;2023-09-30T17:43:41;16.50;71.20
37322;DHT22;23697;48.684;9.032;2023-09-30T17:46:09;16.40;71.30
37322;DHT22;23697;48.684;9.032;2023-09-30T17:48:36;16.30;71.10
37322;DHT22;23697;48.684;9.032;2023-09-30T17:51:03;16.20;71.60
37322;DHT22;23697;48.684;9.032;2023-09-30T17:53:33;16.10;72.00
37322;DHT22;23697;48.684;9.032;2023-09-30T17:55:59;16.10;72.30
37322;DHT22;23697;48.684;9.032;2023-09-30T17:58:27;16.00;72.40
37322;DHT22;23697;48.684;9.032;2023-09-30T18:00:54;16.00;72.90
37322;DHT22;23697;48.684;9.032;2023-09-30T18:03:21;15.90;73.20
37322;DHT22;23697;48.684;9.032;2023-09-30T18:05:48;15.80;73.40
37322;DHT22;23697;48.684;9.032;2023-09-30T18:08:14;15.70;73.90
37322;DHT22;23697;48.684;9.032;2023-09-30T18:10:43;15.60;74.20
37322;DHT22;23697;48.684;9.032;2023-09-30T18:13:10;15.60;74.20